sensor_id;sensor_type;location;lat;lon;timestamp;P1;durP1;ratioP1;P2;durP2;ratioP2
49536;SDS011;74893;30.696;104.058;2024-03-23T00:52:17;48.22;;;27.65;;
49536;SDS011;74893;30.696;104.058;2024-03-23T00:54:44;52.58;;;27.58;;
49536;SDS011;74893;30.696;104.058;2024-03-23T00:57:11;54.90;;;28.02;;
49536;SDS011;74893;30.696;104.058;2024-03-23T00:59:38;47.35;;;26.77;;
49536;SDS011;74893;30.696;104.058;2024-03-23T01:02:04;47.03;;;27.73;;
49536;SDS011;74893;30.696;104.058;2024-03-23T01:04:31;52.13;;;29.35;;
49536;SDS011;74893;30.696;104.058;2024-03-23T01:06:58;51.78;;;27.17;;
49536;SDS011;74893;30.696;104.058;2024-03-23T01:09:25;57.05;;;28.60;;
49536;SDS011;74893;30.696;104.058;2024-03-23T01:11:52;48.05;;;27.10;;
49536;SDS011;74893;30.696;104.058;2024-03-23T01:14:19;46.70;;;26.83;;
49536;SDS011;74893;30.696;104.058;2024-03-23T01:16:45;51.15;;;28.05;;
49536;SDS011;74893;30.696;104.058;2024-03-23T01:19:12;48.58;;;27.50;;
49536;SDS011;74893;30.696;104.058;2024-03-23T01:21:39;45.70;;;27.45;;
49536;SDS011;74893;30.696;104.058;2024-03-23T01:24:06;51.97;;;29.08;;
49536;SDS011;74893;30.696;104.058;2024-03-23T01:26:36;50.22;;;26.77;;
49536;SDS011;74893;30.696;104.058;2024-03-23T01:29:02;51.30;;;27.13;;
49536;SDS011;74893;30.696;104.058;2024-03-23T01:31:29;44.03;;;25.23;;
49536;SDS011;74893;30.696;104.058;2024-03-23T01:33:56;47.97;;;27.05;;
49536;SDS011;74893;30.696;104.058;2024-03-23T01:36:24;50.80;;;25.95;;
49536;SDS011;74893;30.696;104.058;2024-03-23T01:38:51;46.67;;;25.58;;
49536;SDS011;74893;30.696;104.058;2024-03-23T01:41:17;43.15;;;25.30;;
49536;SDS011;74893;30.696;104.058;2024-03-23T01:43:45;47.58;;;25.33;;
49536;SDS011;74893;30.696;104.058;2024-03-23T01:46:12;53.17;;;25.42;;
49536;SDS011;74893;30.696;104.058;2024-03-23T01:48:39;47.53;;;24.42;;
49536;SDS011;74893;30.696;104.058;2024-03-23T01:51:06;47.30;;;25.33;;
49536;SDS011;74893;30.696;104.058;2024-03-23T01:53:34;51.40;;;26.77;;
49536;SDS011;74893;30.696;104.058;2024-03-23T01:56:00;50.88;;;27.40;;
49536;SDS011;74893;30.696;104.058;2024-03-23T01:58:28;46.55;;;26.98;;
49536;SDS011;74893;30.696;104.058;2024-03-23T02:00:57;57.75;;;31.52;;
49536;SDS011;74893;30.696;104.058;2024-03-23T02:03:27;55.75;;;30.27;;
49536;SDS011;74893;30.696;104.058;2024-03-23T02:05:54;50.42;;;28.40;;
49536;SDS011;74893;30.696;104.058;2024-03-23T02:08:23;50.45;;;28.98;;
49536;SDS011;74893;30.696;104.058;2024-03-23T02:10:50;56.72;;;29.35;;
49536;SDS011;74893;30.696;104.058;2024-03-23T02:13:20;62.70;;;31.98;;
49536;SDS011;74893;30.696;104.058;2024-03-23T02:15:47;65.85;;;32.42;;
49536;SDS011;74893;30.696;104.058;2024-03-23T02:18:14;58.25;;;31.17;;
49536;SDS011;74893;30.696;104.058;2024-03-23T02:20:41;64.53;;;33.53;;
49536;SDS011;74893;30.696;104.058;2024-03-23T02:23:14;64.05;;;34.47;;
49536;SDS011;74893;30.696;104.058;2024-03-23T02:25:42;57.28;;;31.55;;
49536;SDS011;74893;30.696;104.058;2024-03-23T02:28:09;60.67;;;31.23;;
49536;SDS011;74893;30.696;104.058;2024-03-23T02:30:36;56.38;;;29.10;;
49536;SDS011;74893;30.696;104.058;2024-03-23T02:33:03;54.08;;;28.77;;
49536;SDS011;74893;30.696;104.058;2024-03-23T02:35:30;58.13;;;32.33;;
49536;SDS011;74893;30.696;104.058;2024-03-23T02:37:57;59.85;;;30.42;;
49536;SDS011;74893;30.696;104.058;2024-03-23T02:40:24;64.57;;;31.92;;
49536;SDS011;74893;30.696;104.058;2024-03-23T02:42:52;58.10;;;31.05;;
49536;SDS011;74893;30.696;104.058;2024-03-23T02:45:18;59.47;;;31.10;;
49536;SDS011;74893;30.696;104.058;2024-03-23T02:47:45;66.65;;;32.28;;
49536;SDS011;74893;30.696;104.058;2024-03-23T02:50:12;60.95;;;29.75;;
49536;SDS011;74893;30.696;104.058;2024-03-23T02:52:40;65.20;;;30.80;;
49536;SDS011;74893;30.696;104.058;2024-03-23T02:55:07;62.63;;;31.23;;
49536;SDS011;74893;30.696;104.058;2024-03-23T02:57:34;62.38;;;31.13;;
49536;SDS011;74893;30.696;104.058;2024-03-23T03:00:01;58.63;;;29.73;;
49536;SDS011;74893;30.696;104.058;2024-03-23T03:02:28;61.53;;;32.92;;
49536;SDS011;74893;30.696;104.058;2024-03-23T03:04:55;62.55;;;30.48;;
49536;SDS011;74893;30.696;104.058;2024-03-23T03:07:22;62.85;;;31.67;;
49536;SDS011;74893;30.696;104.058;2024-03-23T03:09:49;66.20;;;31.70;;
49536;SDS011;74893;30.696;104.058;2024-03-23T03:12:16;63.60;;;31.85;;
49536;SDS011;74893;30.696;104.058;2024-03-23T03:14:42;63.28;;;33.58;;
49536;SDS011;74893;30.696;104.058;2024-03-23T03:17:09;60.20;;;30.58;;
49536;SDS011;74893;30.696;104.058;2024-03-23T03:19:36;76.85;;;36.70;;
49536;SDS011;74893;30.696;104.058;2024-03-23T03:22:03;85.57;;;38.35;;
49536;SDS011;74893;30.696;104.058;2024-03-23T03:24:29;76.40;;;37.58;;
49536;SDS011;74893;30.696;104.058;2024-03-23T03:26:56;79.32;;;38.13;;
49536;SDS011;74893;30.696;104.058;2024-03-23T03:29:23;80.95;;;39.25;;
49536;SDS011;74893;30.696;104.058;2024-03-23T03:31:51;73.53;;;37.90;;
49536;SDS011;74893;30.696;104.058;2024-03-23T03:34:17;74.78;;;35.90;;
49536;SDS011;74893;30.696;104.058;2024-03-23T03:36:44;73.75;;;36.80;;
49536;SDS011;74893;30.696;104.058;2024-03-23T03:39:11;67.93;;;37.08;;
49536;SDS011;74893;30.696;104.058;2024-03-23T03:41:38;72.75;;;35.63;;
49536;SDS011;74893;30.696;104.058;2024-03-23T03:44:05;75.20;;;37.58;;
49536;SDS011;74893;30.696;104.058;2024-03-23T03:46:32;67.22;;;34.17;;
49536;SDS011;74893;30.696;104.058;2024-03-23T03:48:59;72.28;;;33.97;;
49536;SDS011;74893;30.696;104.058;2024-03-23T03:51:25;68.85;;;35.17;;
49536;SDS011;74893;30.696;104.058;2024-03-23T03:53:52;65.10;;;33.13;;
49536;SDS011;74893;30.696;104.058;2024-03-23T03:56:19;65.40;;;31.65;;
49536;SDS011;74893;30.696;104.058;2024-03-23T03:58:48;68.05;;;31.83;;
49536;SDS011;74893;30.696;104.058;2024-03-23T04:01:14;64.80;;;31.10;;
49536;SDS011;74893;30.696;104.058;2024-03-23T04:03:42;68.32;;;33.03;;
49536;SDS011;74893;30.696;104.058;2024-03-23T04:06:09;66.63;;;32.13;;
49536;SDS011;74893;30.696;104.058;2024-03-23T04:08:36;61.95;;;30.05;;
49536;SDS011;74893;30.696;104.058;2024-03-23T04:11:03;67.88;;;32.42;;
49536;SDS011;74893;30.696;104.058;2024-03-23T04:13:30;67.78;;;30.38;;
49536;SDS011;74893;30.696;104.058;2024-03-23T04:15:57;57.15;;;29.40;;
49536;SDS011;74893;30.696;104.058;2024-03-23T04:18:24;60.55;;;31.10;;
49536;SDS011;74893;30.696;104.058;2024-03-23T04:20:51;59.97;;;29.73;;
49536;SDS011;74893;30.696;104.058;2024-03-23T04:23:18;53.85;;;30.33;;
49536;SDS011;74893;30.696;104.058;2024-03-23T04:25:45;64.13;;;30.48;;
49536;SDS011;74893;30.696;104.058;2024-03-23T04:28:11;65.32;;;32.45;;
49536;SDS011;74893;30.696;104.058;2024-03-23T04:30:38;63.53;;;31.00;;
49536;SDS011;74893;30.696;104.058;2024-03-23T04:33:05;64.35;;;32.85;;
49536;SDS011;74893;30.696;104.058;2024-03-23T04:35:32;62.10;;;32.72;;
49536;SDS011;74893;30.696;104.058;2024-03-23T04:37:59;67.55;;;33.15;;
49536;SDS011;74893;30.696;104.058;2024-03-23T04:40:26;62.63;;;32.20;;
49536;SDS011;74893;30.696;104.058;2024-03-23T04:42:53;62.33;;;31.67;;
49536;SDS011;74893;30.696;104.058;2024-03-23T04:45:20;64.15;;;31.65;;
49536;SDS011;74893;30.696;104.058;2024-03-23T04:47:46;65.50;;;34.05;;
49536;SDS011;74893;30.696;104.058;2024-03-23T04:50:13;72.85;;;35.38;;
49536;SDS011;74893;30.696;104.058;2024-03-23T04:52:41;74.90;;;35.63;;
49536;SDS011;74893;30.696;104.058;2024-03-23T04:55:07;70.47;;;35.53;;
49536;SDS011;74893;30.696;104.058;2024-03-23T04:57:34;65.90;;;33.90;;
49536;SDS011;74893;30.696;104.058;2024-03-23T05:00:01;77.80;;;35.85;;
49536;SDS011;74893;30.696;104.058;2024-03-23T05:02:31;67.43;;;34.88;;
49536;SDS011;74893;30.696;104.058;2024-03-23T05:05:00;70.47;;;36.00;;
49536;SDS011;74893;30.696;104.058;2024-03-23T05:07:27;75.45;;;36.33;;
49536;SDS011;74893;30.696;104.058;2024-03-23T05:09:53;70.93;;;35.08;;
49536;SDS011;74893;30.696;104.058;2024-03-23T05:12:20;75.07;;;38.22;;
49536;SDS011;74893;30.696;104.058;2024-03-23T05:14:47;77.78;;;39.17;;
49536;SDS011;74893;30.696;104.058;2024-03-23T05:17:15;77.28;;;39.58;;
49536;SDS011;74893;30.696;104.058;2024-03-23T05:19:42;81.60;;;38.88;;
49536;SDS011;74893;30.696;104.058;2024-03-23T05:22:09;71.43;;;37.78;;
49536;SDS011;74893;30.696;104.058;2024-03-23T05:24:36;76.72;;;37.70;;
49536;SDS011;74893;30.696;104.058;2024-03-23T05:27:03;80.53;;;39.33;;
49536;SDS011;74893;30.696;104.058;2024-03-23T05:29:31;76.88;;;40.17;;
49536;SDS011;74893;30.696;104.058;2024-03-23T05:31:58;75.93;;;39.85;;
49536;SDS011;74893;30.696;104.058;2024-03-23T05:34:25;77.68;;;39.13;;
49536;SDS011;74893;30.696;104.058;2024-03-23T05:36:53;80.53;;;39.83;;
49536;SDS011;74893;30.696;104.058;2024-03-23T05:39:20;77.70;;;40.35;;
49536;SDS011;74893;30.696;104.058;2024-03-23T05:41:48;74.93;;;41.05;;
49536;SDS011;74893;30.696;104.058;2024-03-23T05:44:15;78.35;;;39.85;;
49536;SDS011;74893;30.696;104.058;2024-03-23T05:46:42;73.30;;;38.35;;
49536;SDS011;74893;30.696;104.058;2024-03-23T05:49:14;71.85;;;38.35;;
49536;SDS011;74893;30.696;104.058;2024-03-23T05:51:42;71.88;;;38.47;;
49536;SDS011;74893;30.696;104.058;2024-03-23T05:54:09;68.47;;;35.45;;
49536;SDS011;74893;30.696;104.058;2024-03-23T05:56:36;66.72;;;38.58;;
49536;SDS011;74893;30.696;104.058;2024-03-23T05:59:03;74.88;;;36.17;;
49536;SDS011;74893;30.696;104.058;2024-03-23T06:01:30;77.03;;;36.60;;
49536;SDS011;74893;30.696;104.058;2024-03-23T06:03:58;66.38;;;37.25;;
49536;SDS011;74893;30.696;104.058;2024-03-23T06:06:27;64.55;;;34.17;;
49536;SDS011;74893;30.696;104.058;2024-03-23T06:08:55;75.28;;;35.50;;
49536;SDS011;74893;30.696;104.058;2024-03-23T06:11:22;69.28;;;35.88;;
49536;SDS011;74893;30.696;104.058;2024-03-23T06:13:49;65.47;;;34.55;;
49536;SDS011;74893;30.696;104.058;2024-03-23T06:16:16;68.47;;;33.70;;
49536;SDS011;74893;30.696;104.058;2024-03-23T06:18:49;57.97;;;31.40;;
49536;SDS011;74893;30.696;104.058;2024-03-23T06:21:16;65.03;;;33.22;;
49536;SDS011;74893;30.696;104.058;2024-03-23T06:23:43;61.08;;;32.75;;
49536;SDS011;74893;30.696;104.058;2024-03-23T06:26:17;67.63;;;33.83;;
49536;SDS011;74893;30.696;104.058;2024-03-23T06:28:45;59.97;;;32.33;;
49536;SDS011;74893;30.696;104.058;2024-03-23T06:31:12;55.60;;;30.83;;
49536;SDS011;74893;30.696;104.058;2024-03-23T06:33:39;54.17;;;29.92;;
49536;SDS011;74893;30.696;104.058;2024-03-23T06:36:09;57.10;;;30.60;;
49536;SDS011;74893;30.696;104.058;2024-03-23T06:38:40;55.42;;;29.48;;
49536;SDS011;74893;30.696;104.058;2024-03-23T06:41:06;54.30;;;29.50;;
49536;SDS011;74893;30.696;104.058;2024-03-23T06:43:34;54.05;;;28.90;;
49536;SDS011;74893;30.696;104.058;2024-03-23T06:46:02;59.28;;;30.13;;
49536;SDS011;74893;30.696;104.058;2024-03-23T06:48:30;50.78;;;26.98;;
49536;SDS011;74893;30.696;104.058;2024-03-23T06:50:57;48.78;;;26.27;;
49536;SDS011;74893;30.696;104.058;2024-03-23T06:53:24;43.88;;;24.98;;
49536;SDS011;74893;30.696;104.058;2024-03-23T06:55:52;48.97;;;24.58;;
49536;SDS011;74893;30.696;104.058;2024-03-23T06:58:20;44.63;;;25.23;;
49536;SDS011;74893;30.696;104.058;2024-03-23T07:00:47;47.70;;;25.08;;
49536;SDS011;74893;30.696;104.058;2024-03-23T07:03:14;47.05;;;24.58;;
49536;SDS011;74893;30.696;104.058;2024-03-23T07:05:42;44.40;;;24.38;;
49536;SDS011;74893;30.696;104.058;2024-03-23T07:08:09;42.47;;;23.50;;
49536;SDS011;74893;30.696;104.058;2024-03-23T07:10:38;41.58;;;23.73;;
49536;SDS011;74893;30.696;104.058;2024-03-23T07:13:05;45.45;;;22.88;;
49536;SDS011;74893;30.696;104.058;2024-03-23T07:15:33;36.17;;;21.52;;
49536;SDS011;74893;30.696;104.058;2024-03-23T07:18:00;35.97;;;20.75;;
49536;SDS011;74893;30.696;104.058;2024-03-23T07:20:27;40.25;;;21.20;;
49536;SDS011;74893;30.696;104.058;2024-03-23T07:22:56;36.15;;;20.17;;
49536;SDS011;74893;30.696;104.058;2024-03-23T07:25:23;35.67;;;20.35;;
49536;SDS011;74893;30.696;104.058;2024-03-23T07:27:50;41.08;;;20.85;;
49536;SDS011;74893;30.696;104.058;2024-03-23T07:30:18;37.00;;;21.25;;
49536;SDS011;74893;30.696;104.058;2024-03-23T07:32:45;33.47;;;19.15;;
49536;SDS011;74893;30.696;104.058;2024-03-23T07:35:13;36.72;;;20.42;;
49536;SDS011;74893;30.696;104.058;2024-03-23T07:37:40;35.03;;;19.02;;
49536;SDS011;74893;30.696;104.058;2024-03-23T07:40:08;34.60;;;18.75;;
49536;SDS011;74893;30.696;104.058;2024-03-23T07:42:35;30.42;;;17.33;;
49536;SDS011;74893;30.696;104.058;2024-03-23T07:45:02;34.85;;;18.13;;
49536;SDS011;74893;30.696;104.058;2024-03-23T07:47:29;32.90;;;17.45;;
49536;SDS011;74893;30.696;104.058;2024-03-23T07:49:56;28.63;;;17.73;;
49536;SDS011;74893;30.696;104.058;2024-03-23T07:52:23;28.15;;;17.33;;
49536;SDS011;74893;30.696;104.058;2024-03-23T07:54:50;32.78;;;17.92;;
49536;SDS011;74893;30.696;104.058;2024-03-23T07:57:16;30.80;;;17.17;;
49536;SDS011;74893;30.696;104.058;2024-03-23T07:59:43;30.88;;;16.55;;
49536;SDS011;74893;30.696;104.058;2024-03-23T08:02:10;26.95;;;15.82;;
49536;SDS011;74893;30.696;104.058;2024-03-23T08:04:37;30.15;;;15.18;;
49536;SDS011;74893;30.696;104.058;2024-03-23T08:07:04;26.67;;;15.70;;
49536;SDS011;74893;30.696;104.058;2024-03-23T08:09:31;29.35;;;16.45;;
49536;SDS011;74893;30.696;104.058;2024-03-23T08:11:57;26.33;;;15.70;;
49536;SDS011;74893;30.696;104.058;2024-03-23T08:14:24;27.83;;;15.27;;
49536;SDS011;74893;30.696;104.058;2024-03-23T08:16:51;26.92;;;15.90;;
49536;SDS011;74893;30.696;104.058;2024-03-23T08:19:18;28.35;;;15.10;;
49536;SDS011;74893;30.696;104.058;2024-03-23T08:21:45;21.88;;;14.07;;
49536;SDS011;74893;30.696;104.058;2024-03-23T08:24:12;23.40;;;13.68;;
49536;SDS011;74893;30.696;104.058;2024-03-23T08:26:39;26.90;;;14.77;;
49536;SDS011;74893;30.696;104.058;2024-03-23T08:29:06;26.63;;;14.60;;
49536;SDS011;74893;30.696;104.058;2024-03-23T08:31:33;26.13;;;14.15;;
49536;SDS011;74893;30.696;104.058;2024-03-23T08:33:59;27.20;;;14.82;;
49536;SDS011;74893;30.696;104.058;2024-03-23T08:36:26;27.50;;;14.48;;
49536;SDS011;74893;30.696;104.058;2024-03-23T08:38:53;25.15;;;13.90;;
49536;SDS011;74893;30.696;104.058;2024-03-23T08:41:20;23.63;;;14.68;;
49536;SDS011;74893;30.696;104.058;2024-03-23T08:43:47;23.90;;;14.38;;
49536;SDS011;74893;30.696;104.058;2024-03-23T08:46:14;25.00;;;14.02;;
49536;SDS011;74893;30.696;104.058;2024-03-23T08:48:46;26.05;;;13.73;;
49536;SDS011;74893;30.696;104.058;2024-03-23T08:51:15;24.77;;;13.90;;
49536;SDS011;74893;30.696;104.058;2024-03-23T08:53:42;22.45;;;14.05;;
49536;SDS011;74893;30.696;104.058;2024-03-23T08:56:09;25.30;;;14.13;;
49536;SDS011;74893;30.696;104.058;2024-03-23T08:58:37;20.60;;;12.60;;
49536;SDS011;74893;30.696;104.058;2024-03-23T09:01:08;23.35;;;14.40;;
49536;SDS011;74893;30.696;104.058;2024-03-23T09:03:41;22.25;;;12.35;;
49536;SDS011;74893;30.696;104.058;2024-03-23T09:06:08;24.15;;;13.45;;
49536;SDS011;74893;30.696;104.058;2024-03-23T09:08:39;25.48;;;14.45;;
49536;SDS011;74893;30.696;104.058;2024-03-23T09:11:08;31.65;;;13.02;;
49536;SDS011;74893;30.696;104.058;2024-03-23T09:13:36;23.40;;;13.48;;
49536;SDS011;74893;30.696;104.058;2024-03-23T09:16:04;23.38;;;13.63;;
49536;SDS011;74893;30.696;104.058;2024-03-23T09:18:32;23.52;;;13.18;;
49536;SDS011;74893;30.696;104.058;2024-03-23T09:21:00;25.02;;;13.23;;
49536;SDS011;74893;30.696;104.058;2024-03-23T09:23:28;22.58;;;13.00;;
49536;SDS011;74893;30.696;104.058;2024-03-23T09:25:55;20.63;;;12.80;;
49536;SDS011;74893;30.696;104.058;2024-03-23T09:28:22;24.67;;;12.52;;
49536;SDS011;74893;30.696;104.058;2024-03-23T09:30:49;24.25;;;13.02;;
49536;SDS011;74893;30.696;104.058;2024-03-23T09:33:15;23.38;;;12.85;;
49536;SDS011;74893;30.696;104.058;2024-03-23T09:35:43;24.85;;;13.02;;
49536;SDS011;74893;30.696;104.058;2024-03-23T09:38:13;24.38;;;13.75;;
49536;SDS011;74893;30.696;104.058;2024-03-23T09:40:40;24.88;;;12.23;;
49536;SDS011;74893;30.696;104.058;2024-03-23T09:43:11;21.55;;;12.07;;
49536;SDS011;74893;30.696;104.058;2024-03-23T09:45:41;28.40;;;13.02;;
49536;SDS011;74893;30.696;104.058;2024-03-23T09:48:08;21.33;;;12.73;;
49536;SDS011;74893;30.696;104.058;2024-03-23T09:50:38;26.13;;;13.95;;
49536;SDS011;74893;30.696;104.058;2024-03-23T09:53:08;22.85;;;12.98;;
49536;SDS011;74893;30.696;104.058;2024-03-23T09:55:38;28.80;;;13.35;;
49536;SDS011;74893;30.696;104.058;2024-03-23T09:58:06;25.17;;;13.02;;
49536;SDS011;74893;30.696;104.058;2024-03-23T10:00:34;27.42;;;14.30;;
49536;SDS011;74893;30.696;104.058;2024-03-23T10:03:01;24.48;;;12.90;;
49536;SDS011;74893;30.696;104.058;2024-03-23T10:05:28;25.40;;;14.13;;
49536;SDS011;74893;30.696;104.058;2024-03-23T10:07:57;24.75;;;13.15;;
49536;SDS011;74893;30.696;104.058;2024-03-23T10:10:27;21.98;;;13.25;;
49536;SDS011;74893;30.696;104.058;2024-03-23T10:12:54;25.95;;;14.57;;
49536;SDS011;74893;30.696;104.058;2024-03-23T10:15:25;25.52;;;13.60;;
49536;SDS011;74893;30.696;104.058;2024-03-23T10:17:52;23.55;;;13.63;;
49536;SDS011;74893;30.696;104.058;2024-03-23T10:20:19;25.42;;;13.00;;
49536;SDS011;74893;30.696;104.058;2024-03-23T10:22:50;22.17;;;13.40;;
49536;SDS011;74893;30.696;104.058;2024-03-23T10:25:18;21.75;;;12.95;;
49536;SDS011;74893;30.696;104.058;2024-03-23T10:27:59;23.50;;;13.07;;
49536;SDS011;74893;30.696;104.058;2024-03-23T10:30:27;23.38;;;12.98;;
49536;SDS011;74893;30.696;104.058;2024-03-23T10:33:06;22.17;;;13.05;;
49536;SDS011;74893;30.696;104.058;2024-03-23T10:35:37;22.92;;;12.45;;
49536;SDS011;74893;30.696;104.058;2024-03-23T10:38:05;21.70;;;12.98;;
49536;SDS011;74893;30.696;104.058;2024-03-23T10:40:35;22.35;;;13.32;;
49536;SDS011;74893;30.696;104.058;2024-03-23T10:45:30;22.38;;;12.63;;
49536;SDS011;74893;30.696;104.058;2024-03-23T10:47:57;26.38;;;13.32;;
49536;SDS011;74893;30.696;104.058;2024-03-23T10:50:24;20.67;;;12.57;;
49536;SDS011;74893;30.696;104.058;2024-03-23T10:52:52;23.23;;;12.63;;
49536;SDS011;74893;30.696;104.058;2024-03-23T10:55:21;21.48;;;12.43;;
49536;SDS011;74893;30.696;104.058;2024-03-23T10:57:50;24.05;;;13.05;;
49536;SDS011;74893;30.696;104.058;2024-03-23T11:00:19;24.63;;;13.40;;
49536;SDS011;74893;30.696;104.058;2024-03-23T11:02:49;24.23;;;12.40;;
49536;SDS011;74893;30.696;104.058;2024-03-23T11:07:57;22.85;;;12.85;;
49536;SDS011;74893;30.696;104.058;2024-03-23T11:10:28;24.17;;;13.20;;
49536;SDS011;74893;30.696;104.058;2024-03-23T11:12:56;22.50;;;12.27;;
49536;SDS011;74893;30.696;104.058;2024-03-23T11:15:23;21.73;;;12.43;;
49536;SDS011;74893;30.696;104.058;2024-03-23T11:20:34;24.40;;;12.85;;
49536;SDS011;74893;30.696;104.058;2024-03-23T11:23:01;26.05;;;13.15;;
49536;SDS011;74893;30.696;104.058;2024-03-23T11:25:28;22.85;;;13.27;;
49536;SDS011;74893;30.696;104.058;2024-03-23T11:30:23;26.95;;;12.82;;
49536;SDS011;74893;30.696;104.058;2024-03-23T11:32:52;26.70;;;13.20;;
49536;SDS011;74893;30.696;104.058;2024-03-23T11:38:12;25.73;;;13.90;;
49536;SDS011;74893;30.696;104.058;2024-03-23T11:40:44;23.52;;;13.45;;
49536;SDS011;74893;30.696;104.058;2024-03-23T11:43:18;22.15;;;12.30;;
49536;SDS011;74893;30.696;104.058;2024-03-23T11:45:50;22.70;;;12.88;;
49536;SDS011;74893;30.696;104.058;2024-03-23T11:48:19;24.73;;;12.63;;
49536;SDS011;74893;30.696;104.058;2024-03-23T11:50:47;25.92;;;12.52;;
49536;SDS011;74893;30.696;104.058;2024-03-23T11:53:16;27.13;;;13.80;;
49536;SDS011;74893;30.696;104.058;2024-03-23T11:58:21;29.90;;;14.18;;
49536;SDS011;74893;30.696;104.058;2024-03-23T12:00:59;24.08;;;13.30;;
49536;SDS011;74893;30.696;104.058;2024-03-23T12:03:31;26.10;;;12.63;;
49536;SDS011;74893;30.696;104.058;2024-03-23T12:05:59;26.73;;;13.57;;
49536;SDS011;74893;30.696;104.058;2024-03-23T12:08:34;22.50;;;12.75;;
49536;SDS011;74893;30.696;104.058;2024-03-23T12:13:35;25.15;;;14.30;;
49536;SDS011;74893;30.696;104.058;2024-03-23T12:16:20;28.75;;;14.43;;
49536;SDS011;74893;30.696;104.058;2024-03-23T12:18:48;27.45;;;14.55;;
49536;SDS011;74893;30.696;104.058;2024-03-23T12:21:16;26.90;;;14.93;;
49536;SDS011;74893;30.696;104.058;2024-03-23T12:23:43;25.05;;;13.73;;
49536;SDS011;74893;30.696;104.058;2024-03-23T12:26:12;26.33;;;14.35;;
49536;SDS011;74893;30.696;104.058;2024-03-23T12:28:39;27.67;;;14.07;;
49536;SDS011;74893;30.696;104.058;2024-03-23T12:31:06;24.65;;;13.82;;
49536;SDS011;74893;30.696;104.058;2024-03-23T12:33:33;24.35;;;14.63;;
49536;SDS011;74893;30.696;104.058;2024-03-23T12:36:00;27.67;;;15.50;;
49536;SDS011;74893;30.696;104.058;2024-03-23T12:38:26;32.33;;;15.90;;
49536;SDS011;74893;30.696;104.058;2024-03-23T12:40:53;29.55;;;15.25;;
49536;SDS011;74893;30.696;104.058;2024-03-23T12:43:20;42.72;;;16.17;;
49536;SDS011;74893;30.696;104.058;2024-03-23T12:47:13;36.92;;;17.25;;
49536;SDS011;74893;30.696;104.058;2024-03-23T12:49:40;35.03;;;15.25;;
49536;SDS011;74893;30.696;104.058;2024-03-23T12:52:06;35.17;;;16.92;;
49536;SDS011;74893;30.696;104.058;2024-03-23T12:54:33;31.63;;;16.30;;
49536;SDS011;74893;30.696;104.058;2024-03-23T12:57:00;29.60;;;15.65;;
49536;SDS011;74893;30.696;104.058;2024-03-23T12:59:28;29.50;;;15.90;;
49536;SDS011;74893;30.696;104.058;2024-03-23T13:01:54;35.35;;;15.98;;
49536;SDS011;74893;30.696;104.058;2024-03-23T13:04:21;29.10;;;15.63;;
49536;SDS011;74893;30.696;104.058;2024-03-23T13:06:48;29.75;;;16.50;;
49536;SDS011;74893;30.696;104.058;2024-03-23T13:09:15;33.25;;;16.95;;
49536;SDS011;74893;30.696;104.058;2024-03-23T13:11:42;27.70;;;15.60;;
49536;SDS011;74893;30.696;104.058;2024-03-23T13:14:10;30.88;;;16.05;;
49536;SDS011;74893;30.696;104.058;2024-03-23T13:16:37;30.65;;;16.90;;
49536;SDS011;74893;30.696;104.058;2024-03-23T13:19:04;29.25;;;16.58;;
49536;SDS011;74893;30.696;104.058;2024-03-23T13:21:30;30.63;;;16.38;;
49536;SDS011;74893;30.696;104.058;2024-03-23T13:23:57;29.70;;;16.55;;
49536;SDS011;74893;30.696;104.058;2024-03-23T13:26:24;29.50;;;15.60;;
49536;SDS011;74893;30.696;104.058;2024-03-23T13:28:51;28.40;;;16.42;;
49536;SDS011;74893;30.696;104.058;2024-03-23T13:31:18;25.45;;;15.68;;
49536;SDS011;74893;30.696;104.058;2024-03-23T13:33:45;28.02;;;15.18;;
49536;SDS011;74893;30.696;104.058;2024-03-23T13:36:11;25.42;;;15.10;;
49536;SDS011;74893;30.696;104.058;2024-03-23T13:38:38;26.20;;;14.80;;
49536;SDS011;74893;30.696;104.058;2024-03-23T13:41:05;26.60;;;14.90;;
49536;SDS011;74893;30.696;104.058;2024-03-23T13:43:33;27.20;;;15.60;;
49536;SDS011;74893;30.696;104.058;2024-03-23T13:46:00;28.80;;;14.98;;
49536;SDS011;74893;30.696;104.058;2024-03-23T13:48:27;25.42;;;14.57;;
49536;SDS011;74893;30.696;104.058;2024-03-23T13:51:00;25.08;;;13.27;;
49536;SDS011;74893;30.696;104.058;2024-03-23T13:53:28;26.65;;;14.20;;
49536;SDS011;74893;30.696;104.058;2024-03-23T13:55:55;22.35;;;14.23;;
49536;SDS011;74893;30.696;104.058;2024-03-23T13:58:22;22.70;;;14.50;;
49536;SDS011;74893;30.696;104.058;2024-03-23T14:00:52;25.95;;;14.40;;
49536;SDS011;74893;30.696;104.058;2024-03-23T14:03:19;24.05;;;13.98;;
49536;SDS011;74893;30.696;104.058;2024-03-23T14:05:45;25.75;;;13.90;;
49536;SDS011;74893;30.696;104.058;2024-03-23T14:08:17;24.95;;;13.75;;
49536;SDS011;74893;30.696;104.058;2024-03-23T14:10:44;25.05;;;14.07;;
49536;SDS011;74893;30.696;104.058;2024-03-23T14:13:11;23.70;;;13.88;;
49536;SDS011;74893;30.696;104.058;2024-03-23T14:15:38;23.98;;;13.07;;
49536;SDS011;74893;30.696;104.058;2024-03-23T14:18:05;25.20;;;13.55;;
49536;SDS011;74893;30.696;104.058;2024-03-23T14:20:32;27.60;;;13.73;;
49536;SDS011;74893;30.696;104.058;2024-03-23T14:22:59;22.67;;;13.07;;
49536;SDS011;74893;30.696;104.058;2024-03-23T14:25:26;22.70;;;13.13;;
49536;SDS011;74893;30.696;104.058;2024-03-23T14:27:54;22.60;;;13.35;;
49536;SDS011;74893;30.696;104.058;2024-03-23T14:30:21;22.05;;;13.15;;
49536;SDS011;74893;30.696;104.058;2024-03-23T14:32:48;19.88;;;11.43;;
49536;SDS011;74893;30.696;104.058;2024-03-23T14:35:16;20.42;;;12.32;;
49536;SDS011;74893;30.696;104.058;2024-03-23T14:37:43;23.52;;;13.10;;
49536;SDS011;74893;30.696;104.058;2024-03-23T14:40:12;21.55;;;11.95;;
49536;SDS011;74893;30.696;104.058;2024-03-23T14:42:39;24.17;;;12.57;;
49536;SDS011;74893;30.696;104.058;2024-03-23T14:45:07;20.15;;;11.60;;
49536;SDS011;74893;30.696;104.058;2024-03-23T14:47:34;20.80;;;11.30;;
49536;SDS011;74893;30.696;104.058;2024-03-23T14:50:01;22.77;;;12.48;;
49536;SDS011;74893;30.696;104.058;2024-03-23T14:52:28;20.95;;;12.35;;
49536;SDS011;74893;30.696;104.058;2024-03-23T14:54:55;21.15;;;12.15;;
49536;SDS011;74893;30.696;104.058;2024-03-23T14:57:22;21.23;;;12.35;;
49536;SDS011;74893;30.696;104.058;2024-03-23T14:59:49;21.50;;;11.30;;
49536;SDS011;74893;30.696;104.058;2024-03-23T15:02:17;21.88;;;11.68;;
49536;SDS011;74893;30.696;104.058;2024-03-23T15:04:44;20.25;;;10.55;;
49536;SDS011;74893;30.696;104.058;2024-03-23T15:07:11;20.85;;;11.02;;
49536;SDS011;74893;30.696;104.058;2024-03-23T15:09:37;19.70;;;11.02;;